This is the latest recevied weather packets stored in our database for station/object OK2CME-6. If no packets are shown the sender has not sent any weather packets the latest 10 day(s).
| Time | Temp. | Humidity | Pressure | Rain* | Wind** | Luminosity | Snow |
|---|---|---|---|---|---|---|---|
| 1777788497 | 12.78° C | 55% | 1022.5 hPa | 0 mm | - | 177 W/m² | - |
| 1777787297 | 12.22° C | 56% | 1022.6 hPa | 0 mm | - | 132 W/m² | - |
| 1777786097 | 11.67° C | 57% | 1022.6 hPa | 0 mm | - | 95 W/m² | - |
| 1777784897 | 11.67° C | 58% | 1022.7 hPa | 0 mm | - | 62 W/m² | - |
| 1777783697 | 10.56° C | 61% | 1022.7 hPa | 0 mm | - | 38 W/m² | - |
| 1777782497 | 10° C | 62% | 1022.6 hPa | 0 mm | - | 22 W/m² | - |
| 1777781297 | 9.44° C | 62% | 1022.6 hPa | 0 mm | - | 10 W/m² | - |
| 1777780097 | 9.44° C | 61% | 1022.5 hPa | 0 mm | - | 3 W/m² | - |
| 1777778897 | 10° C | 58% | 1022.5 hPa | 0 mm | - | 0 W/m² | - |
| 1777777697 | 10° C | 57% | 1022.6 hPa | 0 mm | - | 0 W/m² | - |
| 1777776497 | 10.56° C | 54% | 1022.4 hPa | 0 mm | - | 0 W/m² | - |
| 1777775297 | 11.11° C | 51% | 1022.3 hPa | 0 mm | - | 0 W/m² | - |
| 1777774097 | 12.78° C | 47% | 1022.5 hPa | 0 mm | - | 0 W/m² | - |
| 1777772897 | 12.78° C | 46% | 1022.2 hPa | 0 mm | - | 0 W/m² | - |
| 1777771697 | 12.22° C | 48% | 1022.5 hPa | 0 mm | - | 0 W/m² | - |
| 1777770497 | 12.22° C | 48% | 1022.4 hPa | 0 mm | - | 0 W/m² | - |
| 1777768097 | 12.22° C | 50% | 1022.6 hPa | 0 mm | - | 0 W/m² | - |
| 1777766897 | 13.33° C | 45% | 1022.9 hPa | 0 mm | - | 0 W/m² | - |
| 1777765697 | 13.89° C | 45% | 1022.6 hPa | 0 mm | - | 0 W/m² | - |
| 1777764497 | 13.89° C | 46% | 1023 hPa | 0 mm | - | 0 W/m² | - |
| 1777760897 | 14.44° C | 45% | 1023.2 hPa | 0 mm | - | 0 W/m² | - |
| 1777759697 | 15° C | 44% | 1023.3 hPa | 0 mm | - | 0 W/m² | - |
| 1777758497 | 15° C | 45% | 1023.5 hPa | 0 mm | - | 0 W/m² | - |
| 1777757297 | 15° C | 45% | 1023.7 hPa | 0 mm | - | 0 W/m² | - |
| 1777756097 | 14.44° C | 46% | 1024 hPa | 0 mm | - | 0 W/m² | - |
* Rain latest hour (hover to see other rain measurements)
** Current wind speed in m/s (hover to see current wind gust speed)